createdAt,value
2023-05-14T00:01:56.485Z,7.10
2023-05-14T00:04:36.681Z,6.73
2023-05-14T00:07:24.960Z,6.23
2023-05-14T00:10:00.969Z,6.47
2023-05-14T00:12:37.871Z,5.70
2023-05-14T00:15:15.221Z,6.50
2023-05-14T00:17:46.132Z,6.23
2023-05-14T00:20:17.215Z,6.10
2023-05-14T00:23:03.380Z,6.27
2023-05-14T00:25:40.464Z,5.30
2023-05-14T00:28:25.201Z,5.10
2023-05-14T00:30:55.955Z,5.77
2023-05-14T00:33:37.980Z,5.80
2023-05-14T00:36:07.495Z,6.60
2023-05-14T00:38:53.084Z,6.37
2023-05-14T00:41:30.015Z,6.00
2023-05-14T00:43:58.101Z,5.57
2023-05-14T00:46:30.540Z,5.80
2023-05-14T00:49:02.297Z,5.97
2023-05-14T00:51:37.549Z,6.53
2023-05-14T00:54:23.598Z,5.57
2023-05-14T00:56:58.294Z,6.37
2023-05-14T00:59:43.064Z,6.10
2023-05-14T01:02:18.159Z,6.47
2023-05-14T01:04:55.219Z,5.83
2023-05-14T01:07:42.745Z,6.63
2023-05-14T01:10:29.143Z,6.83
2023-05-14T01:13:15.367Z,6.80
2023-05-14T01:15:57.123Z,6.37
2023-05-14T01:18:32.879Z,5.73
2023-05-14T01:21:27.859Z,6.20
2023-05-14T01:24:03.491Z,5.93
2023-05-14T01:26:39.818Z,6.17
2023-05-14T01:29:17.270Z,6.03
2023-05-14T01:31:54.473Z,4.90
2023-05-14T01:34:34.153Z,5.43
2023-05-14T01:37:10.811Z,4.93
2023-05-14T01:39:45.496Z,5.77
2023-05-14T01:42:16.911Z,6.93
2023-05-14T01:44:49.764Z,5.90
2023-05-14T01:47:26.603Z,6.43
2023-05-14T01:50:05.676Z,5.70
2023-05-14T01:52:39.677Z,5.80
2023-05-14T01:55:28.469Z,6.00
2023-05-14T01:58:03.439Z,5.50
2023-05-14T02:00:36.681Z,6.23
2023-05-14T02:03:12.058Z,5.87
2023-05-14T02:05:44.604Z,7.03
2023-05-14T02:08:17.075Z,5.90
2023-05-14T02:10:52.862Z,6.43
2023-05-14T02:13:26.822Z,6.43
2023-05-14T02:16:02.552Z,7.20
2023-05-14T02:18:41.946Z,6.17
2023-05-14T02:21:18.604Z,6.67
2023-05-14T02:23:54.571Z,6.77
2023-05-14T02:26:32.113Z,6.10
2023-05-14T02:29:05.213Z,6.37
2023-05-14T02:31:39.726Z,7.47
2023-05-14T02:34:18.724Z,6.70
2023-05-14T02:36:52.174Z,6.50
2023-05-14T02:39:26.828Z,7.70
2023-05-14T02:42:01.623Z,6.30
2023-05-14T02:44:35.515Z,6.17
2023-05-14T02:47:10.463Z,6.90
2023-05-14T02:49:44.791Z,6.07
2023-05-14T02:52:18.296Z,7.57
2023-05-14T02:54:47.561Z,6.60
2023-05-14T02:57:27.668Z,6.67
2023-05-14T03:00:04.057Z,6.57
2023-05-14T03:02:35.343Z,7.03
2023-05-14T03:05:11.457Z,6.10
2023-05-14T03:07:50.965Z,6.23
2023-05-14T03:10:24.811Z,6.43
2023-05-14T03:13:04.308Z,5.60
2023-05-14T03:15:38.768Z,5.53
2023-05-14T03:18:14.865Z,5.10
2023-05-14T03:20:44.874Z,6.17
2023-05-14T03:23:19.849Z,6.47
2023-05-14T03:26:04.406Z,5.97
2023-05-14T03:28:43.940Z,5.53
2023-05-14T03:31:28.850Z,6.67
2023-05-14T03:34:09.741Z,5.70
2023-05-14T03:36:45.207Z,5.60
2023-05-14T03:39:20.563Z,6.00
2023-05-14T03:42:01.183Z,7.70
2023-05-14T03:44:50.631Z,6.37
2023-05-14T03:47:23.621Z,6.77
2023-05-14T03:49:58.114Z,7.93
2023-05-14T03:52:30.410Z,7.50
2023-05-14T03:55:04.640Z,7.80
2023-05-14T03:57:41.257Z,7.40
2023-05-14T04:00:20.158Z,7.47
2023-05-14T04:02:59.886Z,6.13
2023-05-14T04:05:42.015Z,6.90
2023-05-14T04:08:23.100Z,7.07
2023-05-14T04:10:55.388Z,6.80
2023-05-14T04:13:41.092Z,7.33
2023-05-14T04:16:33.247Z,7.07
2023-05-14T04:19:09.295Z,7.23
2023-05-14T04:21:48.718Z,6.73
2023-05-14T04:24:26.830Z,7.03
2023-05-14T04:27:08.558Z,8.27
2023-05-14T04:29:46.298Z,7.37
2023-05-14T04:32:26.234Z,7.03
2023-05-14T04:34:56.730Z,7.50
2023-05-14T04:37:30.538Z,8.30
2023-05-14T04:40:10.564Z,7.13
2023-05-14T04:42:54.829Z,7.10
2023-05-14T04:45:26.922Z,7.03
2023-05-14T04:48:03.090Z,6.73
2023-05-14T04:50:44.737Z,8.67
2023-05-14T04:53:20.781Z,8.60
2023-05-14T04:55:57.330Z,8.27
2023-05-14T04:58:33.759Z,8.33
2023-05-14T05:01:13.533Z,8.60
2023-05-14T05:03:51.683Z,8.90
2023-05-14T05:06:22.400Z,9.10
2023-05-14T05:08:56.928Z,9.10
2023-05-14T05:11:37.627Z,8.73
2023-05-14T05:14:11.469Z,9.60
2023-05-14T05:16:47.860Z,8.53
2023-05-14T05:19:26.523Z,8.27
2023-05-14T05:22:04.197Z,7.93
2023-05-14T05:24:41.588Z,9.57
2023-05-14T05:27:24.517Z,9.10
2023-05-14T05:29:57.342Z,8.90
2023-05-14T05:32:31.286Z,9.27
2023-05-14T05:35:12.861Z,8.90
2023-05-14T05:37:47.989Z,9.30
2023-05-14T05:40:25.847Z,8.33
2023-05-14T05:43:11.060Z,7.60
2023-05-14T05:45:51.094Z,8.93
2023-05-14T05:48:25.250Z,7.73
2023-05-14T05:51:15.789Z,7.80
2023-05-14T05:53:48.612Z,7.90
2023-05-14T05:56:21.896Z,7.87
2023-05-14T05:59:07.827Z,7.97
2023-05-14T06:01:45.539Z,7.60
2023-05-14T06:04:22.699Z,8.30
2023-05-14T06:07:02.817Z,6.70
2023-05-14T06:09:34.420Z,7.60
2023-05-14T06:12:06.178Z,7.40
2023-05-14T06:14:38.743Z,7.27
2023-05-14T06:17:16.190Z,7.77
2023-05-14T06:19:49.368Z,6.40
2023-05-14T06:22:27.409Z,7.07
2023-05-14T06:25:08.110Z,6.77
2023-05-14T06:27:42.296Z,7.77
2023-05-14T06:30:19.558Z,7.20
2023-05-14T06:32:53.133Z,6.50
2023-05-14T06:35:30.081Z,6.90
2023-05-14T06:38:18.666Z,8.10
2023-05-14T06:40:57.708Z,7.10
2023-05-14T06:43:31.768Z,7.07
2023-05-14T06:46:02.408Z,7.20
2023-05-14T06:48:40.029Z,7.63
2023-05-14T06:51:19.659Z,7.30
2023-05-14T06:53:52.733Z,7.20
2023-05-14T06:56:23.715Z,7.30
2023-05-14T06:58:55.204Z,7.77
2023-05-14T07:01:36.430Z,6.40
2023-05-14T07:04:16.947Z,7.37
2023-05-14T07:06:54.024Z,6.70
2023-05-14T07:09:39.629Z,7.73
2023-05-14T07:12:16.647Z,6.90
2023-05-14T07:14:55.588Z,7.30
2023-05-14T07:17:26.081Z,6.70
2023-05-14T07:19:58.439Z,7.40
2023-05-14T07:22:30.555Z,7.23
2023-05-14T07:25:12.423Z,6.73
2023-05-14T07:27:52.173Z,6.43
2023-05-14T07:30:26.464Z,7.03
2023-05-14T07:33:05.965Z,6.60
2023-05-14T07:35:35.283Z,6.70
2023-05-14T07:38:08.172Z,6.53
2023-05-14T07:40:42.562Z,6.10
2023-05-14T07:43:22.578Z,7.20
2023-05-14T07:46:12.544Z,7.47
2023-05-14T07:48:48.243Z,6.60
2023-05-14T07:51:23.764Z,6.90
2023-05-14T07:53:55.774Z,8.13
2023-05-14T07:56:32.727Z,7.63
2023-05-14T07:59:00.953Z,6.83
2023-05-14T08:01:33.525Z,7.10
2023-05-14T08:04:14.638Z,7.40
2023-05-14T08:06:48.412Z,7.03
2023-05-14T08:09:20.431Z,7.30
2023-05-14T08:12:00.791Z,6.60
2023-05-14T08:14:37.474Z,6.63
2023-05-14T08:17:15.690Z,6.77
2023-05-14T08:19:52.894Z,7.60
2023-05-14T08:22:28.012Z,7.07
2023-05-14T08:25:04.952Z,7.60
2023-05-14T08:27:42.644Z,7.20
2023-05-14T08:30:14.314Z,7.17
2023-05-14T08:32:47.124Z,7.07
2023-05-14T08:35:17.866Z,7.80
2023-05-14T08:37:50.142Z,7.63
2023-05-14T08:40:26.966Z,9.10
2023-05-14T08:43:01.826Z,8.20
2023-05-14T08:45:36.266Z,8.50
2023-05-14T08:48:15.417Z,8.00
2023-05-14T08:50:46.521Z,7.63
2023-05-14T08:53:27.082Z,8.10
2023-05-14T08:56:04.414Z,7.67
2023-05-14T08:58:51.890Z,9.07
2023-05-14T09:01:32.549Z,9.33
2023-05-14T09:04:10.298Z,7.87
2023-05-14T09:06:43.977Z,7.33
2023-05-14T09:09:19.152Z,8.73
2023-05-14T09:11:50.292Z,7.47
2023-05-14T09:14:25.645Z,7.23
2023-05-14T09:16:59.310Z,8.13
2023-05-14T09:19:33.532Z,7.37
2023-05-14T09:22:04.046Z,7.70
2023-05-14T09:24:40.613Z,8.47
2023-05-14T09:27:21.780Z,8.20
2023-05-14T09:29:53.302Z,7.90
2023-05-14T09:32:26.628Z,8.17
2023-05-14T09:34:57.883Z,7.30
2023-05-14T09:37:32.246Z,7.13
2023-05-14T09:40:12.397Z,6.47
2023-05-14T09:42:45.100Z,8.00
2023-05-14T09:45:17.613Z,6.83
2023-05-14T09:47:53.710Z,9.10
2023-05-14T09:50:28.697Z,8.43
2023-05-14T09:53:04.021Z,7.00
2023-05-14T09:55:49.382Z,9.23
2023-05-14T09:58:28.674Z,8.17
2023-05-14T10:01:12.232Z,9.63
2023-05-14T10:03:48.151Z,13.40
2023-05-14T10:06:26.310Z,14.10
2023-05-14T10:09:07.223Z,10.23
2023-05-14T10:11:43.147Z,16.03
2023-05-14T10:14:21.104Z,9.30
2023-05-14T10:16:57.349Z,10.00
2023-05-14T10:19:34.315Z,7.07
2023-05-14T10:22:18.050Z,7.50
2023-05-14T10:24:54.935Z,8.07
2023-05-14T10:27:40.099Z,7.20
2023-05-14T10:30:18.222Z,7.70
2023-05-14T10:33:18.113Z,9.33
2023-05-14T10:36:05.532Z,7.30
2023-05-14T10:38:40.354Z,9.20
2023-05-14T10:41:20.559Z,12.10
2023-05-14T10:43:56.783Z,9.97
2023-05-14T10:46:29.155Z,11.60
2023-05-14T10:49:03.382Z,12.30
2023-05-14T10:51:43.090Z,8.90
2023-05-14T10:54:17.541Z,8.90
2023-05-14T10:56:50.985Z,6.80
2023-05-14T10:59:27.414Z,7.97
2023-05-14T11:02:07.837Z,7.07
2023-05-14T11:04:48.075Z,7.50
2023-05-14T11:07:19.669Z,7.87
2023-05-14T11:09:51.101Z,7.33
2023-05-14T11:12:26.925Z,8.17
2023-05-14T11:14:59.571Z,7.97
2023-05-14T11:17:32.436Z,6.47
2023-05-14T11:20:06.520Z,7.20
2023-05-14T11:22:43.319Z,8.00
2023-05-14T11:25:26.896Z,7.37
2023-05-14T11:28:03.252Z,6.63
2023-05-14T11:30:44.880Z,5.97
2023-05-14T11:33:18.363Z,6.90
2023-05-14T11:35:55.432Z,6.40
2023-05-14T11:38:29.781Z,7.70
2023-05-14T11:41:03.369Z,6.87
2023-05-14T11:43:38.378Z,8.13
2023-05-14T11:46:11.724Z,8.17
2023-05-14T11:48:53.714Z,7.67
2023-05-14T11:51:35.360Z,5.97
2023-05-14T11:54:06.452Z,5.70
2023-05-14T11:56:43.739Z,5.03
2023-05-14T11:59:24.559Z,6.50
2023-05-14T12:01:56.553Z,5.67
2023-05-14T12:04:34.447Z,6.23
2023-05-14T12:07:13.256Z,6.27
2023-05-14T12:09:54.448Z,6.00
2023-05-14T12:12:31.474Z,6.37
2023-05-14T12:15:06.626Z,5.97
2023-05-14T12:17:50.391Z,5.40
2023-05-14T12:20:29.033Z,5.47
2023-05-14T12:23:04.847Z,5.53
2023-05-14T12:25:44.120Z,5.37
2023-05-14T12:28:19.296Z,5.70
2023-05-14T12:30:57.442Z,6.07
2023-05-14T12:33:27.825Z,5.50
2023-05-14T12:36:21.370Z,5.60
2023-05-14T12:39:12.131Z,5.20
2023-05-14T12:41:48.548Z,4.97
2023-05-14T12:44:25.476Z,5.47
2023-05-14T12:46:58.066Z,5.00
2023-05-14T12:49:29.298Z,4.57
2023-05-14T12:52:17.399Z,4.40
2023-05-14T12:55:02.331Z,4.50
2023-05-14T12:57:46.868Z,3.90
2023-05-14T13:00:18.243Z,6.13
2023-05-14T13:02:53.021Z,4.30
2023-05-14T13:05:40.008Z,4.07
2023-05-14T13:08:10.627Z,4.97
2023-05-14T13:10:55.283Z,5.07
2023-05-14T13:13:28.801Z,4.80
2023-05-14T13:16:03.886Z,5.67
2023-05-14T13:18:42.728Z,5.80
2023-05-14T13:21:16.578Z,7.27
2023-05-14T13:23:49.628Z,5.60
2023-05-14T13:26:37.124Z,4.70
2023-05-14T13:29:11.947Z,4.40
2023-05-14T13:31:56.042Z,4.47
2023-05-14T13:34:30.143Z,4.33
2023-05-14T13:37:04.130Z,3.57
2023-05-14T13:39:36.789Z,4.50
2023-05-14T13:42:12.324Z,3.77
2023-05-14T13:44:55.405Z,3.97
2023-05-14T13:47:28.682Z,3.93
2023-05-14T13:50:02.039Z,4.40
2023-05-14T13:52:34.719Z,3.47
2023-05-14T13:55:06.886Z,3.80
2023-05-14T13:57:47.104Z,4.30
2023-05-14T14:04:12.198Z,4.63
2023-05-14T14:06:56.014Z,4.00
2023-05-14T14:09:54.525Z,4.53
2023-05-14T14:12:40.424Z,4.50
2023-05-14T14:15:34.756Z,4.10
2023-05-14T14:18:14.509Z,4.33
2023-05-14T14:24:02.405Z,3.87
2023-05-14T14:29:42.908Z,3.87
2023-05-14T14:32:32.107Z,4.37
2023-05-14T14:35:27.531Z,4.20
2023-05-14T14:38:05.221Z,3.80
2023-05-14T14:40:58.133Z,4.50
2023-05-14T14:43:29.800Z,3.67
2023-05-14T14:46:44.678Z,4.20
2023-05-14T14:49:17.870Z,3.90
2023-05-14T14:51:56.926Z,4.00
2023-05-14T14:54:31.175Z,3.93
2023-05-14T14:57:02.808Z,4.13
2023-05-14T15:00:02.329Z,3.90
2023-05-14T15:02:41.452Z,3.90
2023-05-14T15:05:35.123Z,3.60
2023-05-14T15:08:16.464Z,3.70
2023-05-14T15:11:02.106Z,4.27
2023-05-14T15:13:35.731Z,4.07
2023-05-14T15:16:15.619Z,4.63
2023-05-14T15:19:14.056Z,3.40
2023-05-14T15:22:01.422Z,4.00
2023-05-14T15:24:43.751Z,3.73
2023-05-14T15:27:21.949Z,3.90
2023-05-14T15:30:13.127Z,4.47
2023-05-14T15:33:10.575Z,4.73
2023-05-14T15:35:51.996Z,4.50
2023-05-14T15:38:38.194Z,4.17
2023-05-14T15:41:13.045Z,3.40
2023-05-14T15:43:58.346Z,3.83
2023-05-14T15:46:38.190Z,5.17
2023-05-14T15:49:10.862Z,3.40
2023-05-14T15:51:47.109Z,4.40
2023-05-14T15:55:15.995Z,3.67
2023-05-14T15:57:56.821Z,7.73
2023-05-14T16:00:34.145Z,5.90
2023-05-14T16:03:12.781Z,4.20
2023-05-14T16:05:49.400Z,4.80
2023-05-14T16:08:31.425Z,4.67
2023-05-14T16:11:04.680Z,4.97
2023-05-14T16:13:36.426Z,3.70
2023-05-14T16:16:08.119Z,4.17
2023-05-14T16:18:36.057Z,3.80
2023-05-14T16:21:06.248Z,4.30
2023-05-14T16:23:36.734Z,4.70
2023-05-14T16:26:15.259Z,4.67
2023-05-14T16:28:55.041Z,4.30
2023-05-14T16:31:30.425Z,3.70
2023-05-14T16:34:15.603Z,3.50
2023-05-14T16:36:48.690Z,4.10
2023-05-14T16:39:26.156Z,4.50
2023-05-14T16:42:10.491Z,4.30
2023-05-14T16:44:41.912Z,4.13
2023-05-14T16:47:18.767Z,4.20
2023-05-14T16:49:49.361Z,4.20
2023-05-14T16:52:23.228Z,4.20
2023-05-14T16:55:00.809Z,3.60
2023-05-14T16:57:42.178Z,4.50
2023-05-14T17:00:18.917Z,5.20
2023-05-14T17:03:02.930Z,3.50
2023-05-14T17:05:42.888Z,4.13
2023-05-14T17:08:13.810Z,4.30
2023-05-14T17:10:42.369Z,3.27
2023-05-14T17:13:21.300Z,4.67
2023-05-14T17:15:52.630Z,6.90
2023-05-14T17:18:24.589Z,6.97
2023-05-14T17:20:55.339Z,5.00
2023-05-14T17:23:35.211Z,5.50
2023-05-14T17:26:12.701Z,5.23
2023-05-14T17:28:44.632Z,4.43
2023-05-14T17:31:15.378Z,4.00
2023-05-14T17:33:49.577Z,3.97
2023-05-14T17:36:26.926Z,4.57
2023-05-14T17:39:07.616Z,4.43
2023-05-14T17:41:38.607Z,4.30
2023-05-14T17:44:14.155Z,4.30
2023-05-14T17:46:48.063Z,4.23
2023-05-14T17:49:18.062Z,5.13
2023-05-14T17:51:50.820Z,6.00
2023-05-14T17:54:29.142Z,5.50
2023-05-14T17:57:02.934Z,5.90
2023-05-14T17:59:37.293Z,5.27
2023-05-14T18:02:22.221Z,5.67
2023-05-14T18:04:51.494Z,5.83
2023-05-14T18:07:26.208Z,5.07
2023-05-14T18:10:00.517Z,5.27
2023-05-14T18:12:38.183Z,4.90
2023-05-14T18:15:26.015Z,3.50
2023-05-14T18:18:05.172Z,5.17
2023-05-14T18:20:42.305Z,5.23
2023-05-14T18:23:16.373Z,4.97
2023-05-14T18:25:48.065Z,4.70
2023-05-14T18:28:18.947Z,4.50
2023-05-14T18:30:55.276Z,4.40
2023-05-14T18:33:27.084Z,4.23
2023-05-14T18:36:01.280Z,4.60
2023-05-14T18:38:34.140Z,4.07
2023-05-14T18:41:08.894Z,3.83
2023-05-14T18:43:50.091Z,4.20
2023-05-14T18:46:30.530Z,4.53
2023-05-14T18:49:09.805Z,4.93
2023-05-14T18:51:49.660Z,4.70
2023-05-14T18:54:28.574Z,5.50
2023-05-14T18:57:02.274Z,4.37
2023-05-14T18:59:35.126Z,4.47
2023-05-14T19:02:12.106Z,5.27
2023-05-14T19:04:56.345Z,5.00
2023-05-14T19:07:32.543Z,5.60
2023-05-14T19:10:08.849Z,5.30
2023-05-14T19:12:45.636Z,5.20
2023-05-14T19:15:21.017Z,5.50
2023-05-14T19:18:01.449Z,5.33
2023-05-14T19:20:44.734Z,5.20
2023-05-14T19:23:16.954Z,5.00
2023-05-14T19:25:48.935Z,5.07
2023-05-14T19:28:19.738Z,5.10
2023-05-14T19:30:54.578Z,5.50
2023-05-14T19:33:30.294Z,5.17
2023-05-14T19:36:05.253Z,5.37
2023-05-14T19:38:38.804Z,5.43
2023-05-14T19:41:09.891Z,5.43
2023-05-14T19:43:50.166Z,5.80
2023-05-14T19:46:20.665Z,5.23
2023-05-14T19:49:01.089Z,4.77
2023-05-14T19:51:32.126Z,5.70
2023-05-14T19:54:06.095Z,4.90
2023-05-14T19:56:38.622Z,5.57
2023-05-14T19:59:12.609Z,4.63
2023-05-14T20:01:44.339Z,5.07
2023-05-14T20:04:28.616Z,5.10
2023-05-14T20:07:03.239Z,5.00
2023-05-14T20:09:39.970Z,4.90
2023-05-14T20:12:16.697Z,4.37
2023-05-14T20:14:49.930Z,5.43
2023-05-14T20:17:23.582Z,5.13
2023-05-14T20:19:58.994Z,5.50
2023-05-14T20:22:36.272Z,5.60
2023-05-14T20:25:17.208Z,5.10
2023-05-14T20:27:52.070Z,4.87
2023-05-14T20:30:30.472Z,5.80
2023-05-14T20:33:09.383Z,6.00
2023-05-14T20:35:53.275Z,4.90
2023-05-14T20:38:31.729Z,5.47
2023-05-14T20:41:06.128Z,5.23
2023-05-14T20:43:46.563Z,4.80
2023-05-14T20:46:18.902Z,5.40
2023-05-14T20:48:52.299Z,5.40
2023-05-14T20:51:31.040Z,5.10
2023-05-14T20:54:04.956Z,4.90
2023-05-14T20:56:36.634Z,5.80
2023-05-14T20:59:19.804Z,5.80
2023-05-14T21:01:53.455Z,5.03
2023-05-14T21:04:34.331Z,4.87
2023-05-14T21:07:18.355Z,5.57
2023-05-14T21:09:55.582Z,4.90
2023-05-14T21:12:34.072Z,5.60
2023-05-14T21:15:10.102Z,5.03
2023-05-14T21:17:39.914Z,5.67
2023-05-14T21:20:18.872Z,5.17
2023-05-14T21:22:58.290Z,5.53
2023-05-14T21:25:32.142Z,5.30
2023-05-14T21:28:01.241Z,4.63
2023-05-14T21:30:34.712Z,5.07
2023-05-14T21:33:08.323Z,5.43
2023-05-14T21:35:43.949Z,4.97
2023-05-14T21:38:21.822Z,5.50
2023-05-14T21:41:02.001Z,5.23
2023-05-14T21:43:32.716Z,5.57
2023-05-14T21:46:07.644Z,5.10
2023-05-14T21:48:53.694Z,5.50
2023-05-14T21:51:28.909Z,5.30
2023-05-14T21:54:05.527Z,5.23
2023-05-14T21:56:37.520Z,5.57
2023-05-14T21:59:10.940Z,5.40
2023-05-14T22:02:05.401Z,5.37
2023-05-14T22:04:44.497Z,5.30
2023-05-14T22:07:17.570Z,5.83
2023-05-14T22:10:05.053Z,5.67
2023-05-14T22:12:41.247Z,5.00
2023-05-14T22:15:19.376Z,5.20
2023-05-14T22:17:53.548Z,4.87
2023-05-14T22:20:29.450Z,5.53
2023-05-14T22:23:06.001Z,6.13
2023-05-14T22:25:40.612Z,5.57
2023-05-14T22:28:22.657Z,5.33
2023-05-14T22:31:03.262Z,6.70
2023-05-14T22:33:34.402Z,6.70
2023-05-14T22:36:18.007Z,6.27
2023-05-14T22:38:54.868Z,5.70
2023-05-14T22:41:31.452Z,5.80
2023-05-14T22:44:06.455Z,5.53
2023-05-14T22:46:37.159Z,6.93
2023-05-14T22:49:15.787Z,6.77
2023-05-14T22:51:57.157Z,7.23
2023-05-14T22:54:33.728Z,6.10
2023-05-14T22:57:14.936Z,5.53
2023-05-14T22:59:46.779Z,5.43
2023-05-14T23:02:19.467Z,5.77
2023-05-14T23:04:50.259Z,5.50
2023-05-14T23:07:21.100Z,5.10
2023-05-14T23:09:52.432Z,5.10
2023-05-14T23:12:32.203Z,5.50
2023-05-14T23:15:12.617Z,4.50
2023-05-14T23:17:57.597Z,4.90
2023-05-14T23:20:30.021Z,5.13
2023-05-14T23:23:02.955Z,5.57
2023-05-14T23:25:33.822Z,5.10
2023-05-14T23:28:07.972Z,5.30
2023-05-14T23:30:41.163Z,6.40
2023-05-14T23:33:18.168Z,7.03
2023-05-14T23:35:57.480Z,6.13
2023-05-14T23:38:31.823Z,6.13
2023-05-14T23:41:14.843Z,5.60
2023-05-14T23:43:51.779Z,5.23
2023-05-14T23:46:29.660Z,5.13
2023-05-14T23:49:10.361Z,5.47
2023-05-14T23:51:39.542Z,6.40
2023-05-14T23:54:17.307Z,5.20
2023-05-14T23:56:57.467Z,5.20
2023-05-14T23:59:33.959Z,5.57
